sensor_id;sensor_type;location;lat;lon;timestamp;temperature;humidity
17442;DHT22;8838;50.144;8.176;2023-06-26T00:00:39;18.70;99.90
17442;DHT22;8838;50.144;8.176;2023-06-26T00:03:06;18.60;99.90
17442;DHT22;8838;50.144;8.176;2023-06-26T00:05:33;18.60;99.90
17442;DHT22;8838;50.144;8.176;2023-06-26T00:08:00;18.60;99.90
17442;DHT22;8838;50.144;8.176;2023-06-26T00:10:28;18.50;99.90
17442;DHT22;8838;50.144;8.176;2023-06-26T00:12:54;18.40;99.90
17442;DHT22;8838;50.144;8.176;2023-06-26T00:15:21;18.50;99.90
17442;DHT22;8838;50.144;8.176;2023-06-26T00:17:48;18.40;99.90
17442;DHT22;8838;50.144;8.176;2023-06-26T00:20:16;18.40;99.90
17442;DHT22;8838;50.144;8.176;2023-06-26T00:22:44;18.40;99.90
17442;DHT22;8838;50.144;8.176;2023-06-26T00:25:11;18.40;99.90
17442;DHT22;8838;50.144;8.176;2023-06-26T00:27:39;18.40;99.90
17442;DHT22;8838;50.144;8.176;2023-06-26T00:30:09;18.40;99.90
17442;DHT22;8838;50.144;8.176;2023-06-26T00:32:35;18.40;99.90
17442;DHT22;8838;50.144;8.176;2023-06-26T00:35:02;18.40;99.90
17442;DHT22;8838;50.144;8.176;2023-06-26T00:37:29;18.30;99.90
17442;DHT22;8838;50.144;8.176;2023-06-26T00:39:59;18.30;99.90
17442;DHT22;8838;50.144;8.176;2023-06-26T00:42:26;18.20;99.90
17442;DHT22;8838;50.144;8.176;2023-06-26T00:44:54;18.20;99.90
17442;DHT22;8838;50.144;8.176;2023-06-26T00:47:21;18.20;99.90
17442;DHT22;8838;50.144;8.176;2023-06-26T00:49:48;18.10;99.90
17442;DHT22;8838;50.144;8.176;2023-06-26T00:52:15;18.10;99.90
17442;DHT22;8838;50.144;8.176;2023-06-26T00:54:42;18.00;99.90
17442;DHT22;8838;50.144;8.176;2023-06-26T00:57:09;18.00;99.90
17442;DHT22;8838;50.144;8.176;2023-06-26T00:59:36;18.00;99.90
17442;DHT22;8838;50.144;8.176;2023-06-26T01:02:05;18.10;99.90
17442;DHT22;8838;50.144;8.176;2023-06-26T01:04:32;18.10;99.90
17442;DHT22;8838;50.144;8.176;2023-06-26T01:06:59;18.00;99.90
17442;DHT22;8838;50.144;8.176;2023-06-26T01:09:26;17.90;99.90
17442;DHT22;8838;50.144;8.176;2023-06-26T01:11:53;17.90;99.90
17442;DHT22;8838;50.144;8.176;2023-06-26T01:14:20;17.80;99.90
17442;DHT22;8838;50.144;8.176;2023-06-26T01:16:49;17.80;99.90
17442;DHT22;8838;50.144;8.176;2023-06-26T01:19:23;17.70;99.90
17442;DHT22;8838;50.144;8.176;2023-06-26T01:21:54;17.70;99.90
17442;DHT22;8838;50.144;8.176;2023-06-26T01:24:25;17.60;99.90
17442;DHT22;8838;50.144;8.176;2023-06-26T01:26:58;17.50;99.90
17442;DHT22;8838;50.144;8.176;2023-06-26T01:29:29;17.50;99.90
17442;DHT22;8838;50.144;8.176;2023-06-26T01:31:56;17.50;99.90
17442;DHT22;8838;50.144;8.176;2023-06-26T01:34:24;17.50;99.90
17442;DHT22;8838;50.144;8.176;2023-06-26T01:36:51;17.50;99.90
17442;DHT22;8838;50.144;8.176;2023-06-26T01:39:19;17.40;99.90
17442;DHT22;8838;50.144;8.176;2023-06-26T01:41:46;17.30;99.90
17442;DHT22;8838;50.144;8.176;2023-06-26T01:44:23;17.30;99.90
17442;DHT22;8838;50.144;8.176;2023-06-26T01:46:59;17.20;99.90
17442;DHT22;8838;50.144;8.176;2023-06-26T01:49:33;17.20;99.90
17442;DHT22;8838;50.144;8.176;2023-06-26T01:52:08;17.20;99.90
17442;DHT22;8838;50.144;8.176;2023-06-26T01:54:41;17.30;99.90
17442;DHT22;8838;50.144;8.176;2023-06-26T01:57:10;17.20;99.90
17442;DHT22;8838;50.144;8.176;2023-06-26T01:59:40;17.20;99.90
17442;DHT22;8838;50.144;8.176;2023-06-26T02:02:08;17.30;99.90
17442;DHT22;8838;50.144;8.176;2023-06-26T02:04:35;17.20;99.90
17442;DHT22;8838;50.144;8.176;2023-06-26T02:07:03;17.20;99.90
17442;DHT22;8838;50.144;8.176;2023-06-26T02:09:30;17.10;99.90
17442;DHT22;8838;50.144;8.176;2023-06-26T02:11:57;17.10;99.90
17442;DHT22;8838;50.144;8.176;2023-06-26T02:14:23;17.00;99.90
17442;DHT22;8838;50.144;8.176;2023-06-26T02:16:51;17.00;99.90
17442;DHT22;8838;50.144;8.176;2023-06-26T02:19:18;17.00;99.90
17442;DHT22;8838;50.144;8.176;2023-06-26T02:21:47;17.00;99.90
17442;DHT22;8838;50.144;8.176;2023-06-26T02:24:14;16.90;99.90
17442;DHT22;8838;50.144;8.176;2023-06-26T02:26:41;16.80;99.90
17442;DHT22;8838;50.144;8.176;2023-06-26T02:29:08;16.80;99.90
17442;DHT22;8838;50.144;8.176;2023-06-26T02:31:35;16.80;99.90
17442;DHT22;8838;50.144;8.176;2023-06-26T02:34:03;16.80;99.90
17442;DHT22;8838;50.144;8.176;2023-06-26T02:36:30;16.90;99.90
17442;DHT22;8838;50.144;8.176;2023-06-26T02:38:57;16.90;99.90
17442;DHT22;8838;50.144;8.176;2023-06-26T02:41:23;16.90;99.90
17442;DHT22;8838;50.144;8.176;2023-06-26T02:43:50;16.90;99.90
17442;DHT22;8838;50.144;8.176;2023-06-26T02:46:17;17.00;99.90
17442;DHT22;8838;50.144;8.176;2023-06-26T02:48:44;16.90;99.90
17442;DHT22;8838;50.144;8.176;2023-06-26T02:51:12;17.00;99.90
17442;DHT22;8838;50.144;8.176;2023-06-26T02:53:39;16.80;99.90
17442;DHT22;8838;50.144;8.176;2023-06-26T02:56:06;16.80;99.90
17442;DHT22;8838;50.144;8.176;2023-06-26T02:58:33;16.70;99.90
17442;DHT22;8838;50.144;8.176;2023-06-26T03:01:00;16.70;99.90
17442;DHT22;8838;50.144;8.176;2023-06-26T03:03:26;16.70;99.90
17442;DHT22;8838;50.144;8.176;2023-06-26T03:05:53;16.60;99.90
17442;DHT22;8838;50.144;8.176;2023-06-26T03:08:22;16.60;99.90
17442;DHT22;8838;50.144;8.176;2023-06-26T03:10:48;16.60;99.90
17442;DHT22;8838;50.144;8.176;2023-06-26T03:13:15;16.70;99.90
17442;DHT22;8838;50.144;8.176;2023-06-26T03:15:43;16.70;99.90
17442;DHT22;8838;50.144;8.176;2023-06-26T03:18:10;16.70;99.90
17442;DHT22;8838;50.144;8.176;2023-06-26T03:20:36;16.70;99.90
17442;DHT22;8838;50.144;8.176;2023-06-26T03:23:03;16.70;99.90
17442;DHT22;8838;50.144;8.176;2023-06-26T03:25:32;16.70;99.90
17442;DHT22;8838;50.144;8.176;2023-06-26T03:27:59;16.70;99.90
17442;DHT22;8838;50.144;8.176;2023-06-26T03:30:25;16.70;99.90
17442;DHT22;8838;50.144;8.176;2023-06-26T03:32:52;16.70;99.90
17442;DHT22;8838;50.144;8.176;2023-06-26T03:35:19;16.70;99.90
17442;DHT22;8838;50.144;8.176;2023-06-26T03:37:46;16.80;99.90
17442;DHT22;8838;50.144;8.176;2023-06-26T03:40:12;16.80;99.90
17442;DHT22;8838;50.144;8.176;2023-06-26T03:42:41;16.70;99.90
17442;DHT22;8838;50.144;8.176;2023-06-26T03:45:08;16.70;99.90
17442;DHT22;8838;50.144;8.176;2023-06-26T03:47:35;16.70;99.90
17442;DHT22;8838;50.144;8.176;2023-06-26T03:50:02;16.70;99.90
17442;DHT22;8838;50.144;8.176;2023-06-26T03:52:31;16.60;99.90
17442;DHT22;8838;50.144;8.176;2023-06-26T03:54:58;16.70;99.90
17442;DHT22;8838;50.144;8.176;2023-06-26T03:57:24;16.60;99.90
17442;DHT22;8838;50.144;8.176;2023-06-26T03:59:54;16.70;99.90
17442;DHT22;8838;50.144;8.176;2023-06-26T04:02:21;16.70;99.90
17442;DHT22;8838;50.144;8.176;2023-06-26T04:04:48;16.70;99.90
17442;DHT22;8838;50.144;8.176;2023-06-26T04:07:15;16.80;99.90
17442;DHT22;8838;50.144;8.176;2023-06-26T04:09:42;16.70;99.90
17442;DHT22;8838;50.144;8.176;2023-06-26T04:12:09;16.80;99.90
17442;DHT22;8838;50.144;8.176;2023-06-26T04:14:36;16.90;99.90
17442;DHT22;8838;50.144;8.176;2023-06-26T04:17:04;16.90;99.90
17442;DHT22;8838;50.144;8.176;2023-06-26T04:19:31;16.90;99.90
17442;DHT22;8838;50.144;8.176;2023-06-26T04:21:58;16.90;99.90
17442;DHT22;8838;50.144;8.176;2023-06-26T04:24:25;17.10;99.90
17442;DHT22;8838;50.144;8.176;2023-06-26T04:26:52;17.10;99.90
17442;DHT22;8838;50.144;8.176;2023-06-26T04:29:18;17.30;99.90
17442;DHT22;8838;50.144;8.176;2023-06-26T04:31:46;17.30;99.90
17442;DHT22;8838;50.144;8.176;2023-06-26T04:34:15;17.30;99.90
17442;DHT22;8838;50.144;8.176;2023-06-26T04:36:41;17.40;99.90
17442;DHT22;8838;50.144;8.176;2023-06-26T04:39:13;17.40;99.90
17442;DHT22;8838;50.144;8.176;2023-06-26T04:41:40;17.50;99.90
17442;DHT22;8838;50.144;8.176;2023-06-26T04:44:07;17.50;99.90
17442;DHT22;8838;50.144;8.176;2023-06-26T04:46:33;17.50;99.90
17442;DHT22;8838;50.144;8.176;2023-06-26T04:49:00;17.60;99.90
17442;DHT22;8838;50.144;8.176;2023-06-26T04:51:30;17.60;99.90
17442;DHT22;8838;50.144;8.176;2023-06-26T04:53:56;17.60;99.90
17442;DHT22;8838;50.144;8.176;2023-06-26T04:56:23;17.70;99.90
17442;DHT22;8838;50.144;8.176;2023-06-26T04:58:52;17.80;99.90
17442;DHT22;8838;50.144;8.176;2023-06-26T05:01:18;17.90;99.90
17442;DHT22;8838;50.144;8.176;2023-06-26T05:03:45;18.00;99.90
17442;DHT22;8838;50.144;8.176;2023-06-26T05:06:13;18.10;99.90
17442;DHT22;8838;50.144;8.176;2023-06-26T05:08:41;18.20;99.90
17442;DHT22;8838;50.144;8.176;2023-06-26T05:11:08;18.30;99.90
17442;DHT22;8838;50.144;8.176;2023-06-26T05:13:35;18.40;99.90
17442;DHT22;8838;50.144;8.176;2023-06-26T05:16:02;18.50;99.90
17442;DHT22;8838;50.144;8.176;2023-06-26T05:18:28;18.60;99.90
17442;DHT22;8838;50.144;8.176;2023-06-26T05:20:56;18.70;99.90
17442;DHT22;8838;50.144;8.176;2023-06-26T05:23:25;18.80;99.90
17442;DHT22;8838;50.144;8.176;2023-06-26T05:25:54;18.90;99.90
17442;DHT22;8838;50.144;8.176;2023-06-26T05:28:22;19.10;99.90
17442;DHT22;8838;50.144;8.176;2023-06-26T05:30:50;19.30;99.90
17442;DHT22;8838;50.144;8.176;2023-06-26T05:33:18;19.40;99.90
17442;DHT22;8838;50.144;8.176;2023-06-26T05:35:46;19.60;99.90
17442;DHT22;8838;50.144;8.176;2023-06-26T05:38:13;19.70;99.90
17442;DHT22;8838;50.144;8.176;2023-06-26T05:40:41;19.70;99.90
17442;DHT22;8838;50.144;8.176;2023-06-26T05:43:10;19.80;99.90
17442;DHT22;8838;50.144;8.176;2023-06-26T05:45:37;20.10;99.90
17442;DHT22;8838;50.144;8.176;2023-06-26T05:48:04;20.30;99.90
17442;DHT22;8838;50.144;8.176;2023-06-26T05:50:31;20.60;99.90
17442;DHT22;8838;50.144;8.176;2023-06-26T05:52:59;20.90;99.90
17442;DHT22;8838;50.144;8.176;2023-06-26T05:55:27;21.10;99.90
17442;DHT22;8838;50.144;8.176;2023-06-26T05:57:53;21.20;99.90
17442;DHT22;8838;50.144;8.176;2023-06-26T06:00:24;21.50;99.90
17442;DHT22;8838;50.144;8.176;2023-06-26T06:02:53;21.70;99.90
17442;DHT22;8838;50.144;8.176;2023-06-26T06:05:20;22.00;99.90
17442;DHT22;8838;50.144;8.176;2023-06-26T06:07:47;22.20;99.90
17442;DHT22;8838;50.144;8.176;2023-06-26T06:10:14;22.40;99.90
17442;DHT22;8838;50.144;8.176;2023-06-26T06:12:41;22.50;99.90
17442;DHT22;8838;50.144;8.176;2023-06-26T06:15:08;22.60;99.90
17442;DHT22;8838;50.144;8.176;2023-06-26T06:17:36;22.70;99.90
17442;DHT22;8838;50.144;8.176;2023-06-26T06:20:04;22.80;99.90
17442;DHT22;8838;50.144;8.176;2023-06-26T06:22:32;22.90;99.90
17442;DHT22;8838;50.144;8.176;2023-06-26T06:24:58;23.00;99.90
17442;DHT22;8838;50.144;8.176;2023-06-26T06:27:27;23.10;99.90
17442;DHT22;8838;50.144;8.176;2023-06-26T06:29:54;23.20;99.90
17442;DHT22;8838;50.144;8.176;2023-06-26T06:32:21;23.30;99.90
17442;DHT22;8838;50.144;8.176;2023-06-26T06:34:49;23.40;99.90
17442;DHT22;8838;50.144;8.176;2023-06-26T06:37:19;23.50;99.90
17442;DHT22;8838;50.144;8.176;2023-06-26T06:39:45;23.70;99.90
17442;DHT22;8838;50.144;8.176;2023-06-26T06:42:12;23.70;99.90
17442;DHT22;8838;50.144;8.176;2023-06-26T06:44:39;23.90;99.90
17442;DHT22;8838;50.144;8.176;2023-06-26T06:47:06;24.00;99.90
17442;DHT22;8838;50.144;8.176;2023-06-26T06:49:33;24.10;99.90
17442;DHT22;8838;50.144;8.176;2023-06-26T06:52:01;24.20;99.90
17442;DHT22;8838;50.144;8.176;2023-06-26T06:54:28;24.30;99.90
17442;DHT22;8838;50.144;8.176;2023-06-26T06:56:54;24.40;99.90
17442;DHT22;8838;50.144;8.176;2023-06-26T06:59:21;24.60;99.90
17442;DHT22;8838;50.144;8.176;2023-06-26T07:01:48;24.70;99.90
17442;DHT22;8838;50.144;8.176;2023-06-26T07:04:15;24.90;99.90
17442;DHT22;8838;50.144;8.176;2023-06-26T07:06:42;25.00;99.90
17442;DHT22;8838;50.144;8.176;2023-06-26T07:09:10;25.10;99.90
17442;DHT22;8838;50.144;8.176;2023-06-26T07:11:37;25.20;99.90
17442;DHT22;8838;50.144;8.176;2023-06-26T07:14:03;25.30;99.90
17442;DHT22;8838;50.144;8.176;2023-06-26T07:16:30;25.40;99.90
17442;DHT22;8838;50.144;8.176;2023-06-26T07:18:57;25.50;99.90
17442;DHT22;8838;50.144;8.176;2023-06-26T07:21:24;25.60;99.90
17442;DHT22;8838;50.144;8.176;2023-06-26T07:23:50;25.80;99.90
17442;DHT22;8838;50.144;8.176;2023-06-26T07:26:19;25.90;99.90
17442;DHT22;8838;50.144;8.176;2023-06-26T07:28:47;26.00;99.90
17442;DHT22;8838;50.144;8.176;2023-06-26T07:31:14;26.20;99.90
17442;DHT22;8838;50.144;8.176;2023-06-26T07:33:42;26.20;99.90
17442;DHT22;8838;50.144;8.176;2023-06-26T07:36:09;26.20;99.90
17442;DHT22;8838;50.144;8.176;2023-06-26T07:38:36;26.20;99.90
17442;DHT22;8838;50.144;8.176;2023-06-26T07:41:02;26.20;99.90
17442;DHT22;8838;50.144;8.176;2023-06-26T07:43:30;26.20;99.90
17442;DHT22;8838;50.144;8.176;2023-06-26T07:45:57;26.20;99.90
17442;DHT22;8838;50.144;8.176;2023-06-26T07:48:25;26.20;99.90
17442;DHT22;8838;50.144;8.176;2023-06-26T07:50:52;26.00;99.90
17442;DHT22;8838;50.144;8.176;2023-06-26T07:53:19;25.80;99.90
17442;DHT22;8838;50.144;8.176;2023-06-26T07:55:46;25.60;99.90
17442;DHT22;8838;50.144;8.176;2023-06-26T07:58:14;25.50;99.90
17442;DHT22;8838;50.144;8.176;2023-06-26T08:00:42;25.50;99.90
17442;DHT22;8838;50.144;8.176;2023-06-26T08:03:09;25.80;99.90
17442;DHT22;8838;50.144;8.176;2023-06-26T08:05:36;26.20;99.90
17442;DHT22;8838;50.144;8.176;2023-06-26T08:08:03;26.70;99.90
17442;DHT22;8838;50.144;8.176;2023-06-26T08:10:31;27.20;99.90
17442;DHT22;8838;50.144;8.176;2023-06-26T08:12:59;27.20;99.90
17442;DHT22;8838;50.144;8.176;2023-06-26T08:15:26;26.90;99.90
17442;DHT22;8838;50.144;8.176;2023-06-26T08:17:54;27.00;99.90
17442;DHT22;8838;50.144;8.176;2023-06-26T08:20:21;27.30;99.90
17442;DHT22;8838;50.144;8.176;2023-06-26T08:22:49;27.60;99.90
17442;DHT22;8838;50.144;8.176;2023-06-26T08:25:17;27.70;99.90
17442;DHT22;8838;50.144;8.176;2023-06-26T08:27:43;27.70;99.90
17442;DHT22;8838;50.144;8.176;2023-06-26T08:30:11;27.40;99.90
17442;DHT22;8838;50.144;8.176;2023-06-26T08:32:39;27.30;99.90
17442;DHT22;8838;50.144;8.176;2023-06-26T08:35:07;27.10;99.90
17442;DHT22;8838;50.144;8.176;2023-06-26T08:37:35;26.70;99.90
17442;DHT22;8838;50.144;8.176;2023-06-26T08:40:03;26.70;99.90
17442;DHT22;8838;50.144;8.176;2023-06-26T08:42:30;27.00;99.90
17442;DHT22;8838;50.144;8.176;2023-06-26T08:44:59;27.60;99.90
17442;DHT22;8838;50.144;8.176;2023-06-26T08:47:26;28.10;99.90
17442;DHT22;8838;50.144;8.176;2023-06-26T08:49:58;28.30;99.90
17442;DHT22;8838;50.144;8.176;2023-06-26T08:52:30;28.70;99.90
17442;DHT22;8838;50.144;8.176;2023-06-26T08:55:02;29.10;99.90
17442;DHT22;8838;50.144;8.176;2023-06-26T08:57:30;29.40;99.90
17442;DHT22;8838;50.144;8.176;2023-06-26T08:59:58;29.40;99.90
17442;DHT22;8838;50.144;8.176;2023-06-26T09:02:26;29.30;99.90
17442;DHT22;8838;50.144;8.176;2023-06-26T09:04:52;29.50;99.90
17442;DHT22;8838;50.144;8.176;2023-06-26T09:07:19;29.50;99.90
17442;DHT22;8838;50.144;8.176;2023-06-26T09:09:48;28.90;99.90
17442;DHT22;8838;50.144;8.176;2023-06-26T09:12:14;28.70;99.90
17442;DHT22;8838;50.144;8.176;2023-06-26T09:14:42;28.50;99.90
17442;DHT22;8838;50.144;8.176;2023-06-26T09:17:09;28.20;99.90
17442;DHT22;8838;50.144;8.176;2023-06-26T09:19:37;27.90;99.90
17442;DHT22;8838;50.144;8.176;2023-06-26T09:22:11;28.20;99.90
17442;DHT22;8838;50.144;8.176;2023-06-26T09:24:42;28.40;99.90
17442;DHT22;8838;50.144;8.176;2023-06-26T09:27:11;28.30;99.90
17442;DHT22;8838;50.144;8.176;2023-06-26T09:29:38;28.50;99.90
17442;DHT22;8838;50.144;8.176;2023-06-26T09:32:08;28.90;99.90
17442;DHT22;8838;50.144;8.176;2023-06-26T09:34:35;29.10;99.90
17442;DHT22;8838;50.144;8.176;2023-06-26T09:37:02;29.50;99.90
17442;DHT22;8838;50.144;8.176;2023-06-26T09:39:30;30.20;99.90
17442;DHT22;8838;50.144;8.176;2023-06-26T09:41:58;30.80;99.90
17442;DHT22;8838;50.144;8.176;2023-06-26T09:44:30;30.90;99.90
17442;DHT22;8838;50.144;8.176;2023-06-26T09:46:57;29.80;99.90
17442;DHT22;8838;50.144;8.176;2023-06-26T09:49:24;29.30;99.90
17442;DHT22;8838;50.144;8.176;2023-06-26T09:51:51;29.40;99.90
17442;DHT22;8838;50.144;8.176;2023-06-26T09:54:21;29.70;99.90
17442;DHT22;8838;50.144;8.176;2023-06-26T09:56:48;30.00;99.90
17442;DHT22;8838;50.144;8.176;2023-06-26T09:59:15;30.20;99.90
17442;DHT22;8838;50.144;8.176;2023-06-26T10:01:46;30.70;99.90
17442;DHT22;8838;50.144;8.176;2023-06-26T10:04:13;31.00;99.90
17442;DHT22;8838;50.144;8.176;2023-06-26T10:06:44;31.40;99.90
17442;DHT22;8838;50.144;8.176;2023-06-26T10:09:13;31.20;99.90
17442;DHT22;8838;50.144;8.176;2023-06-26T10:11:43;31.10;99.90
17442;DHT22;8838;50.144;8.176;2023-06-26T10:14:13;31.00;99.90
17442;DHT22;8838;50.144;8.176;2023-06-26T10:16:43;30.80;99.90
17442;DHT22;8838;50.144;8.176;2023-06-26T10:19:11;31.10;99.90
17442;DHT22;8838;50.144;8.176;2023-06-26T10:21:40;31.00;99.90
17442;DHT22;8838;50.144;8.176;2023-06-26T10:24:08;31.10;99.90
17442;DHT22;8838;50.144;8.176;2023-06-26T10:26:40;31.30;99.90
17442;DHT22;8838;50.144;8.176;2023-06-26T10:29:10;31.40;99.90
17442;DHT22;8838;50.144;8.176;2023-06-26T10:31:40;31.40;99.90
17442;DHT22;8838;50.144;8.176;2023-06-26T10:34:12;31.20;99.90
17442;DHT22;8838;50.144;8.176;2023-06-26T10:36:39;31.40;99.90
17442;DHT22;8838;50.144;8.176;2023-06-26T10:39:06;31.30;99.90
17442;DHT22;8838;50.144;8.176;2023-06-26T10:41:37;31.30;99.90
17442;DHT22;8838;50.144;8.176;2023-06-26T10:44:09;31.60;99.90
17442;DHT22;8838;50.144;8.176;2023-06-26T10:46:49;31.70;99.90
17442;DHT22;8838;50.144;8.176;2023-06-26T10:49:19;32.20;99.90
17442;DHT22;8838;50.144;8.176;2023-06-26T10:51:47;32.20;99.90
17442;DHT22;8838;50.144;8.176;2023-06-26T10:54:15;32.40;99.90
17442;DHT22;8838;50.144;8.176;2023-06-26T10:56:44;32.60;99.90
17442;DHT22;8838;50.144;8.176;2023-06-26T10:59:13;32.20;99.90
17442;DHT22;8838;50.144;8.176;2023-06-26T11:01:41;31.30;99.90
17442;DHT22;8838;50.144;8.176;2023-06-26T11:04:08;31.20;99.90
17442;DHT22;8838;50.144;8.176;2023-06-26T11:06:38;30.90;99.90
17442;DHT22;8838;50.144;8.176;2023-06-26T11:09:10;30.60;99.90
17442;DHT22;8838;50.144;8.176;2023-06-26T11:11:57;30.50;99.90
17442;DHT22;8838;50.144;8.176;2023-06-26T11:14:27;30.50;99.90
17442;DHT22;8838;50.144;8.176;2023-06-26T11:16:55;31.00;99.90
17442;DHT22;8838;50.144;8.176;2023-06-26T11:19:23;31.10;99.90
17442;DHT22;8838;50.144;8.176;2023-06-26T11:21:58;31.50;99.90
17442;DHT22;8838;50.144;8.176;2023-06-26T11:24:25;32.20;99.90
17442;DHT22;8838;50.144;8.176;2023-06-26T11:27:00;32.20;99.90
17442;DHT22;8838;50.144;8.176;2023-06-26T11:29:27;31.60;99.90
17442;DHT22;8838;50.144;8.176;2023-06-26T11:32:07;31.10;99.90
17442;DHT22;8838;50.144;8.176;2023-06-26T11:34:34;30.60;99.90
17442;DHT22;8838;50.144;8.176;2023-06-26T11:37:04;30.40;99.90
17442;DHT22;8838;50.144;8.176;2023-06-26T11:39:32;29.90;99.90
17442;DHT22;8838;50.144;8.176;2023-06-26T11:41:59;29.40;99.90
17442;DHT22;8838;50.144;8.176;2023-06-26T11:44:31;28.70;99.90
17442;DHT22;8838;50.144;8.176;2023-06-26T11:47:00;28.10;99.90
17442;DHT22;8838;50.144;8.176;2023-06-26T11:49:28;28.30;99.90
17442;DHT22;8838;50.144;8.176;2023-06-26T11:51:55;28.30;99.90
17442;DHT22;8838;50.144;8.176;2023-06-26T11:54:27;28.30;99.90
17442;DHT22;8838;50.144;8.176;2023-06-26T11:56:55;28.00;99.90
17442;DHT22;8838;50.144;8.176;2023-06-26T11:59:33;27.80;99.90
17442;DHT22;8838;50.144;8.176;2023-06-26T12:02:00;27.60;99.90
17442;DHT22;8838;50.144;8.176;2023-06-26T12:04:29;27.60;99.90
17442;DHT22;8838;50.144;8.176;2023-06-26T12:06:57;27.30;99.90
17442;DHT22;8838;50.144;8.176;2023-06-26T12:09:26;27.30;99.90
17442;DHT22;8838;50.144;8.176;2023-06-26T12:11:55;27.80;99.90
17442;DHT22;8838;50.144;8.176;2023-06-26T12:14:25;27.90;99.90
17442;DHT22;8838;50.144;8.176;2023-06-26T12:16:54;28.10;99.90
17442;DHT22;8838;50.144;8.176;2023-06-26T12:19:25;28.20;99.90
17442;DHT22;8838;50.144;8.176;2023-06-26T12:21:52;28.00;99.90
17442;DHT22;8838;50.144;8.176;2023-06-26T12:24:22;28.20;99.90
17442;DHT22;8838;50.144;8.176;2023-06-26T12:26:52;28.30;99.90
17442;DHT22;8838;50.144;8.176;2023-06-26T12:29:21;28.70;99.90
17442;DHT22;8838;50.144;8.176;2023-06-26T12:31:55;28.90;99.90
17442;DHT22;8838;50.144;8.176;2023-06-26T12:34:28;29.10;99.90
17442;DHT22;8838;50.144;8.176;2023-06-26T12:37:00;28.70;99.90
17442;DHT22;8838;50.144;8.176;2023-06-26T12:39:27;28.20;99.90
17442;DHT22;8838;50.144;8.176;2023-06-26T12:41:58;27.90;99.90
17442;DHT22;8838;50.144;8.176;2023-06-26T12:44:27;27.70;99.90
17442;DHT22;8838;50.144;8.176;2023-06-26T12:46:56;27.50;99.90
17442;DHT22;8838;50.144;8.176;2023-06-26T12:49:30;27.60;99.90
17442;DHT22;8838;50.144;8.176;2023-06-26T12:51:58;28.10;99.90
17442;DHT22;8838;50.144;8.176;2023-06-26T12:54:24;28.40;99.90
17442;DHT22;8838;50.144;8.176;2023-06-26T12:56:51;28.20;99.90
17442;DHT22;8838;50.144;8.176;2023-06-26T12:59:19;28.30;99.90
17442;DHT22;8838;50.144;8.176;2023-06-26T13:01:46;28.20;99.90
17442;DHT22;8838;50.144;8.176;2023-06-26T13:04:13;28.30;99.90
17442;DHT22;8838;50.144;8.176;2023-06-26T13:06:40;28.50;99.90
17442;DHT22;8838;50.144;8.176;2023-06-26T13:09:07;28.50;99.90
17442;DHT22;8838;50.144;8.176;2023-06-26T13:11:34;28.20;99.90
17442;DHT22;8838;50.144;8.176;2023-06-26T13:14:01;28.00;99.90
17442;DHT22;8838;50.144;8.176;2023-06-26T13:16:29;27.80;99.90
17442;DHT22;8838;50.144;8.176;2023-06-26T13:18:58;27.60;99.90
17442;DHT22;8838;50.144;8.176;2023-06-26T13:21:25;27.50;99.90
17442;DHT22;8838;50.144;8.176;2023-06-26T13:23:52;27.60;99.90
17442;DHT22;8838;50.144;8.176;2023-06-26T13:26:19;27.40;99.90
17442;DHT22;8838;50.144;8.176;2023-06-26T13:28:47;27.40;99.90
17442;DHT22;8838;50.144;8.176;2023-06-26T13:31:13;27.50;99.90
17442;DHT22;8838;50.144;8.176;2023-06-26T13:33:42;27.60;99.90
17442;DHT22;8838;50.144;8.176;2023-06-26T13:36:10;27.70;99.90
17442;DHT22;8838;50.144;8.176;2023-06-26T13:38:37;28.00;99.90
17442;DHT22;8838;50.144;8.176;2023-06-26T13:41:04;28.10;99.90
17442;DHT22;8838;50.144;8.176;2023-06-26T13:43:30;28.30;99.90
17442;DHT22;8838;50.144;8.176;2023-06-26T13:45:57;28.20;99.90
17442;DHT22;8838;50.144;8.176;2023-06-26T13:48:24;28.30;99.90
17442;DHT22;8838;50.144;8.176;2023-06-26T13:50:53;28.50;99.90
17442;DHT22;8838;50.144;8.176;2023-06-26T13:53:20;28.70;99.90
17442;DHT22;8838;50.144;8.176;2023-06-26T13:55:49;28.60;99.90
17442;DHT22;8838;50.144;8.176;2023-06-26T13:58:16;28.60;99.90
17442;DHT22;8838;50.144;8.176;2023-06-26T14:00:48;28.80;99.90
17442;DHT22;8838;50.144;8.176;2023-06-26T14:03:17;28.70;99.90
17442;DHT22;8838;50.144;8.176;2023-06-26T14:05:44;28.60;99.90
17442;DHT22;8838;50.144;8.176;2023-06-26T14:08:13;28.20;99.90
17442;DHT22;8838;50.144;8.176;2023-06-26T14:10:39;28.10;99.90
17442;DHT22;8838;50.144;8.176;2023-06-26T14:13:06;28.20;99.90
17442;DHT22;8838;50.144;8.176;2023-06-26T14:15:34;28.10;99.90
17442;DHT22;8838;50.144;8.176;2023-06-26T14:18:02;27.90;99.90
17442;DHT22;8838;50.144;8.176;2023-06-26T14:20:30;27.70;99.90
17442;DHT22;8838;50.144;8.176;2023-06-26T14:22:58;27.60;99.90
17442;DHT22;8838;50.144;8.176;2023-06-26T14:25:27;27.70;99.90
17442;DHT22;8838;50.144;8.176;2023-06-26T14:27:55;27.70;99.90
17442;DHT22;8838;50.144;8.176;2023-06-26T14:30:22;28.00;99.90
17442;DHT22;8838;50.144;8.176;2023-06-26T14:32:49;28.10;99.90
17442;DHT22;8838;50.144;8.176;2023-06-26T14:35:17;27.60;99.90
17442;DHT22;8838;50.144;8.176;2023-06-26T14:37:44;27.60;99.90
17442;DHT22;8838;50.144;8.176;2023-06-26T14:40:12;27.70;99.90
17442;DHT22;8838;50.144;8.176;2023-06-26T14:42:40;27.90;99.90
17442;DHT22;8838;50.144;8.176;2023-06-26T14:45:09;28.20;99.90
17442;DHT22;8838;50.144;8.176;2023-06-26T14:47:36;28.10;99.90
17442;DHT22;8838;50.144;8.176;2023-06-26T14:50:03;28.30;99.90
17442;DHT22;8838;50.144;8.176;2023-06-26T14:52:51;28.20;99.90
17442;DHT22;8838;50.144;8.176;2023-06-26T14:55:18;28.40;99.90
17442;DHT22;8838;50.144;8.176;2023-06-26T14:57:46;28.50;99.90
17442;DHT22;8838;50.144;8.176;2023-06-26T15:00:15;28.50;99.90
17442;DHT22;8838;50.144;8.176;2023-06-26T15:02:42;28.40;99.90
17442;DHT22;8838;50.144;8.176;2023-06-26T15:05:09;28.10;99.90
17442;DHT22;8838;50.144;8.176;2023-06-26T15:07:35;28.10;99.90
17442;DHT22;8838;50.144;8.176;2023-06-26T15:10:02;27.80;99.90
17442;DHT22;8838;50.144;8.176;2023-06-26T15:12:31;28.10;99.90
17442;DHT22;8838;50.144;8.176;2023-06-26T15:14:59;28.30;99.90
17442;DHT22;8838;50.144;8.176;2023-06-26T15:17:26;28.00;99.90
17442;DHT22;8838;50.144;8.176;2023-06-26T15:19:54;27.90;99.50
17442;DHT22;8838;50.144;8.176;2023-06-26T15:22:23;27.70;99.90
17442;DHT22;8838;50.144;8.176;2023-06-26T15:24:52;27.50;99.90
17442;DHT22;8838;50.144;8.176;2023-06-26T15:27:18;27.60;99.90
17442;DHT22;8838;50.144;8.176;2023-06-26T15:29:45;27.60;99.90
17442;DHT22;8838;50.144;8.176;2023-06-26T15:32:13;27.50;99.90
17442;DHT22;8838;50.144;8.176;2023-06-26T15:34:41;27.40;99.90
17442;DHT22;8838;50.144;8.176;2023-06-26T15:37:08;27.60;99.90
17442;DHT22;8838;50.144;8.176;2023-06-26T15:39:34;27.60;99.90
17442;DHT22;8838;50.144;8.176;2023-06-26T15:42:03;27.20;99.60
17442;DHT22;8838;50.144;8.176;2023-06-26T15:44:30;26.90;99.90
17442;DHT22;8838;50.144;8.176;2023-06-26T15:46:58;27.00;99.90
17442;DHT22;8838;50.144;8.176;2023-06-26T15:49:26;26.80;99.90